createdAt,value
2023-01-07T00:02:52.978Z,100620.59
2023-01-07T00:07:54.202Z,100624.50
2023-01-07T00:12:55.461Z,100621.31
2023-01-07T00:17:56.679Z,100614.72
2023-01-07T00:22:57.895Z,100617.88
2023-01-07T00:27:59.097Z,100605.53
2023-01-07T00:33:05.074Z,100606.59
2023-01-07T00:38:06.418Z,100606.31
2023-01-07T00:43:07.556Z,100591.91
2023-01-07T00:48:08.702Z,100586.66
2023-01-07T00:53:09.912Z,100585.59
2023-01-07T00:58:11.144Z,100587.16
2023-01-07T01:03:12.376Z,100574.31
2023-01-07T01:08:13.527Z,100580.34
2023-01-07T01:13:15.745Z,100566.72
2023-01-07T01:18:18.547Z,100568.31
2023-01-07T01:23:19.785Z,100567.75
2023-01-07T01:28:21.000Z,100568.25
2023-01-07T01:33:22.170Z,100564.06
2023-01-07T01:38:23.377Z,100566.69
2023-01-07T01:43:24.560Z,100566.19
2023-01-07T01:48:25.787Z,100563.81
2023-01-07T01:53:26.995Z,100562.25
2023-01-07T01:58:28.201Z,100569.63
2023-01-07T02:03:29.424Z,100561.25
2023-01-07T02:08:30.678Z,100558.91
2023-01-07T02:13:31.870Z,100553.88
2023-01-07T02:18:33.063Z,100553.88
2023-01-07T02:23:34.245Z,100548.91
2023-01-07T02:28:35.427Z,100542.63
2023-01-07T02:33:36.628Z,100543.66
2023-01-07T02:38:37.757Z,100533.72
2023-01-07T02:43:38.959Z,100534.31
2023-01-07T02:48:40.146Z,100530.09
2023-01-07T02:53:41.343Z,100525.91
2023-01-07T02:58:42.513Z,100525.41
2023-01-07T03:03:43.716Z,100521.22
2023-01-07T03:08:44.988Z,100522.31
2023-01-07T03:13:46.150Z,100523.69
2023-01-07T03:18:47.363Z,100524.81
2023-01-07T03:23:48.527Z,100517.00
2023-01-07T03:28:49.751Z,100512.84
2023-01-07T03:33:50.909Z,100509.50
2023-01-07T03:38:52.085Z,100496.66
2023-01-07T03:43:53.299Z,100500.63
2023-01-07T03:48:54.459Z,100485.25
2023-01-07T03:53:55.616Z,100484.28
2023-01-07T03:58:56.807Z,100479.38
2023-01-07T04:03:58.040Z,100461.03
2023-01-07T04:08:59.314Z,100464.16
2023-01-07T04:14:00.864Z,100457.59
2023-01-07T04:19:02.116Z,100450.28
2023-01-07T04:24:03.301Z,100445.84
2023-01-07T04:29:04.537Z,100433.78
2023-01-07T04:34:05.716Z,100430.13
2023-01-07T04:39:06.946Z,100425.88
2023-01-07T04:44:08.161Z,100417.94
2023-01-07T04:49:09.397Z,100412.06
2023-01-07T04:54:10.594Z,100409.94
2023-01-07T04:59:11.806Z,100399.66
2023-01-07T05:04:13.084Z,100397.81
2023-01-07T05:09:14.266Z,100388.09
2023-01-07T05:14:15.430Z,100384.66
2023-01-07T05:19:16.665Z,100383.34
2023-01-07T05:24:17.868Z,100383.63
2023-01-07T05:29:19.029Z,100378.38
2023-01-07T05:34:20.226Z,100374.94
2023-01-07T05:39:21.430Z,100378.66
2023-01-07T05:44:22.632Z,100363.69
2023-01-07T05:49:23.806Z,100363.13
2023-01-07T05:54:24.977Z,100352.66
2023-01-07T05:59:26.180Z,100353.44
2023-01-07T06:04:27.380Z,100346.84
2023-01-07T06:09:29.856Z,100360.75
2023-01-07T06:14:31.108Z,100348.41
2023-01-07T06:19:32.313Z,100343.97
2023-01-07T06:24:33.477Z,100339.75
2023-01-07T06:29:34.661Z,100343.16
2023-01-07T06:34:35.959Z,100336.38
2023-01-07T06:39:37.185Z,100334.78
2023-01-07T06:44:38.413Z,100335.28
2023-01-07T06:49:39.657Z,100329.00
2023-01-07T06:54:40.797Z,100332.13
2023-01-07T06:59:42.026Z,100327.38
2023-01-07T07:04:43.198Z,100320.84
2023-01-07T07:09:44.476Z,100320.09
2023-01-07T07:14:45.658Z,100314.84
2023-01-07T07:19:46.801Z,100313.50
2023-01-07T07:24:47.979Z,100309.00
2023-01-07T07:29:49.170Z,100306.34
2023-01-07T07:34:50.358Z,100307.41
2023-01-07T07:39:51.616Z,100303.22
2023-01-07T07:44:52.793Z,100294.84
2023-01-07T07:49:54.016Z,100282.78
2023-01-07T07:54:55.269Z,100281.75
2023-01-07T08:00:16.489Z,100282.78
2023-01-07T08:05:17.703Z,100273.88
2023-01-07T08:10:19.638Z,100266.50
2023-01-07T08:15:20.845Z,100262.84
2023-01-07T08:20:22.143Z,100251.31
2023-01-07T08:25:23.297Z,100250.72
2023-01-07T08:30:24.536Z,100248.28
2023-01-07T08:35:25.769Z,100256.69
2023-01-07T08:40:27.062Z,100242.22
2023-01-07T08:45:28.276Z,100247.19
2023-01-07T08:50:29.436Z,100240.59
2023-01-07T08:55:30.599Z,100236.91
2023-01-07T09:00:31.795Z,100238.19
2023-01-07T09:05:35.197Z,100226.63
2023-01-07T09:10:36.606Z,100224.19
2023-01-07T09:15:37.770Z,100215.97
2023-01-07T09:20:38.951Z,100204.84
2023-01-07T09:25:40.234Z,100194.19
2023-01-07T09:30:41.488Z,100199.00
2023-01-07T09:35:42.735Z,100189.72
2023-01-07T09:40:43.976Z,100188.50
2023-01-07T09:45:45.221Z,100178.88
2023-01-07T09:50:46.426Z,100173.81
2023-01-07T09:56:10.983Z,100172.66
2023-01-07T10:01:09.852Z,100159.03
2023-01-07T10:06:11.110Z,100159.31
2023-01-07T10:11:12.313Z,100140.53
2023-01-07T10:16:13.711Z,100144.97
2023-01-07T10:21:14.960Z,100141.22
2023-01-07T10:26:16.099Z,100140.75
2023-01-07T10:31:17.356Z,100130.81
2023-01-07T10:36:18.569Z,100120.91
2023-01-07T10:41:19.854Z,100110.38
2023-01-07T10:46:21.046Z,100100.25
2023-01-07T10:51:23.267Z,100094.56
2023-01-07T10:56:24.540Z,100079.59
2023-01-07T11:01:25.894Z,100073.41
2023-01-07T11:06:27.376Z,100066.03
2023-01-07T11:11:28.574Z,100051.25
2023-01-07T11:16:29.869Z,100046.41
2023-01-07T11:21:42.905Z,100034.22
2023-01-07T11:26:45.432Z,100023.25
2023-01-07T11:31:46.803Z,100011.22
2023-01-07T11:36:48.161Z,100001.75
2023-01-07T11:41:49.393Z,99994.19
2023-01-07T11:46:50.706Z,99979.47
2023-01-07T11:51:51.901Z,99966.25
2023-01-07T11:56:55.187Z,99947.94
2023-01-07T12:01:56.612Z,99941.09
2023-01-07T12:06:57.884Z,99927.13
2023-01-07T12:11:59.103Z,99920.50
2023-01-07T12:17:00.274Z,99910.47
2023-01-07T12:22:01.476Z,99898.56
2023-01-07T12:27:02.700Z,99896.34
2023-01-07T12:32:03.905Z,99885.69
2023-01-07T12:37:05.056Z,99881.69
2023-01-07T12:42:06.391Z,99867.75
2023-01-07T12:47:30.628Z,99864.34
2023-01-07T12:52:28.667Z,99851.78
2023-01-07T12:57:29.833Z,99847.06
2023-01-07T13:02:32.139Z,99840.03
2023-01-07T13:07:33.279Z,99825.91
2023-01-07T13:12:43.964Z,99811.22
2023-01-07T13:17:47.778Z,99816.97
2023-01-07T13:22:48.966Z,99811.00
2023-01-07T13:27:50.183Z,99807.72
2023-01-07T13:32:51.388Z,99799.50
2023-01-07T13:37:52.620Z,99804.88
2023-01-07T13:42:53.894Z,99795.91
2023-01-07T13:47:55.074Z,99801.16
2023-01-07T13:52:56.536Z,99798.81
2023-01-07T13:57:57.839Z,99802.16
2023-01-07T14:02:59.202Z,99784.41
2023-01-07T14:08:00.377Z,99779.44
2023-01-07T14:13:01.592Z,99772.63
2023-01-07T14:18:02.802Z,99769.19
2023-01-07T14:23:03.972Z,99755.84
2023-01-07T14:28:05.145Z,99748.44
2023-01-07T14:33:06.367Z,99746.84
2023-01-07T14:38:07.534Z,99747.78
2023-01-07T14:43:08.730Z,99737.41
2023-01-07T14:48:10.005Z,99746.31
2023-01-07T14:53:11.219Z,99742.97
2023-01-07T14:58:12.410Z,99734.88
2023-01-07T15:03:13.572Z,99743.72
2023-01-07T15:08:33.714Z,99739.88
2023-01-07T15:13:53.530Z,99738.56
2023-01-07T15:18:54.808Z,99740.03
2023-01-07T15:23:56.004Z,99738.53
2023-01-07T15:28:57.236Z,99740.03
2023-01-07T15:33:58.460Z,99729.56
2023-01-07T15:38:59.834Z,99727.63
2023-01-07T15:44:01.060Z,99719.59
2023-01-07T15:49:02.285Z,99714.06
2023-01-07T15:54:03.804Z,99701.75
2023-01-07T15:59:04.959Z,99690.72
2023-01-07T16:04:07.984Z,99689.34
2023-01-07T16:09:09.169Z,99694.22
2023-01-07T16:14:10.419Z,99683.94
2023-01-07T16:19:11.655Z,99689.06
2023-01-07T16:24:12.815Z,99686.34
2023-01-07T16:29:14.007Z,99676.44
2023-01-07T16:34:15.238Z,99675.56
2023-01-07T16:39:16.442Z,99677.53
2023-01-07T16:44:17.641Z,99670.84
2023-01-07T16:49:18.819Z,99651.56
2023-01-07T16:54:20.296Z,99657.66
2023-01-07T16:59:21.640Z,99654.47
2023-01-07T17:04:22.881Z,99649.44
2023-01-07T17:09:24.199Z,99644.97
2023-01-07T17:14:25.458Z,99643.19
2023-01-07T17:19:26.786Z,99642.91
2023-01-07T17:24:28.425Z,99633.16
2023-01-07T17:29:29.602Z,99623.59
2023-01-07T17:34:30.756Z,99627.69
2023-01-07T17:39:32.015Z,99636.50
2023-01-07T17:44:33.273Z,99624.00
2023-01-07T17:49:34.491Z,99631.34
2023-01-07T17:54:36.028Z,99624.13
2023-01-07T17:59:37.376Z,99618.28
2023-01-07T18:04:38.663Z,99622.44
2023-01-07T18:09:42.185Z,99616.50
2023-01-07T18:14:43.458Z,99628.25
2023-01-07T18:19:44.751Z,99615.16
2023-01-07T18:24:46.048Z,99605.47
2023-01-07T18:29:47.352Z,99590.22
2023-01-07T18:34:48.629Z,99575.69
2023-01-07T18:39:49.813Z,99559.84
2023-01-07T18:44:50.997Z,99550.50
2023-01-07T18:49:52.237Z,99546.13
2023-01-07T18:54:53.456Z,99565.59
2023-01-07T18:59:54.704Z,99573.69
2023-01-07T19:04:55.895Z,99553.22
2023-01-07T19:09:57.111Z,99550.53
2023-01-07T19:14:58.335Z,99548.78
2023-01-07T19:19:59.609Z,99549.88
2023-01-07T19:25:00.803Z,99544.81
2023-01-07T19:30:02.037Z,99560.25
2023-01-07T19:35:03.225Z,99559.34
2023-01-07T19:40:04.384Z,99531.78
2023-01-07T19:45:06.492Z,99527.00
2023-01-07T19:50:08.262Z,99535.34
2023-01-07T19:55:09.455Z,99532.72
2023-01-07T20:00:10.745Z,99532.13
2023-01-07T20:05:12.003Z,99527.03
2023-01-07T20:10:13.476Z,99526.63
2023-01-07T20:15:14.631Z,99528.06
2023-01-07T20:20:15.785Z,99527.47
2023-01-07T20:25:16.936Z,99530.84
2023-01-07T20:30:18.134Z,99526.38
2023-01-07T20:35:19.407Z,99527.13
2023-01-07T20:40:20.578Z,99519.59
2023-01-07T20:45:21.759Z,99522.53
2023-01-07T20:50:22.930Z,99532.22
2023-01-07T20:55:24.151Z,99527.59
2023-01-07T21:00:25.335Z,99511.91
2023-01-07T21:05:26.568Z,99500.78
2023-01-07T21:10:27.746Z,99495.56
2023-01-07T21:15:28.951Z,99506.75
2023-01-07T21:20:30.136Z,99495.25
2023-01-07T21:25:31.349Z,99489.00
2023-01-07T21:30:32.536Z,99472.84
2023-01-07T21:35:33.786Z,99470.72
2023-01-07T21:40:35.008Z,99441.63
2023-01-07T21:45:36.254Z,99473.09
2023-01-07T21:50:37.508Z,99459.56
2023-01-07T21:55:39.586Z,99443.81
2023-01-07T22:00:40.831Z,99454.63
2023-01-07T22:05:42.034Z,99441.88
2023-01-07T22:10:43.187Z,99434.63
2023-01-07T22:15:44.387Z,99441.16
2023-01-07T22:20:45.642Z,99453.03
2023-01-07T22:25:46.823Z,99464.97
2023-01-07T22:30:48.057Z,99464.66
2023-01-07T22:35:49.305Z,99470.22
2023-01-07T22:40:50.463Z,99448.91
2023-01-07T22:45:51.706Z,99451.53
2023-01-07T22:50:52.969Z,99449.22
2023-01-07T22:55:54.121Z,99449.66
2023-01-07T23:00:55.372Z,99439.97
2023-01-07T23:05:56.549Z,99454.00
2023-01-07T23:10:57.738Z,99444.09
2023-01-07T23:15:58.936Z,99425.28
2023-01-07T23:21:00.176Z,99419.88
2023-01-07T23:26:01.443Z,99415.53
2023-01-07T23:31:02.638Z,99412.59
2023-01-07T23:36:03.936Z,99417.38
2023-01-07T23:41:05.061Z,99423.25
2023-01-07T23:46:06.320Z,99428.50
2023-01-07T23:51:07.557Z,99412.75
2023-01-07T23:56:08.748Z,99402.88
